createdAt,value
2018-04-08T00:00:15.720Z,11.50
2018-04-08T00:02:43.149Z,11.50
2018-04-08T00:05:10.594Z,11.50
2018-04-08T00:07:38.797Z,11.40
2018-04-08T00:10:06.234Z,11.30
2018-04-08T00:12:33.658Z,11.40
2018-04-08T00:15:01.181Z,11.40
2018-04-08T00:17:28.642Z,11.40
2018-04-08T00:19:56.093Z,11.30
2018-04-08T00:22:23.865Z,11.30
2018-04-08T00:24:51.318Z,11.30
2018-04-08T00:27:18.758Z,11.30
2018-04-08T00:29:46.215Z,11.20
2018-04-08T00:32:13.667Z,11.20
2018-04-08T00:34:41.352Z,11.20
2018-04-08T00:37:08.779Z,11.10
2018-04-08T00:39:36.201Z,11.00
2018-04-08T00:42:04.434Z,10.90
2018-04-08T00:44:31.898Z,10.90
2018-04-08T00:46:59.328Z,10.90
2018-04-08T00:49:26.765Z,10.90
2018-04-08T00:51:54.191Z,10.90
2018-04-08T00:54:37.321Z,10.80
2018-04-08T00:57:05.533Z,10.80
2018-04-08T00:59:32.970Z,10.70
2018-04-08T01:02:01.171Z,10.80
2018-04-08T01:04:28.617Z,10.70
2018-04-08T01:06:56.060Z,10.70
2018-04-08T01:09:24.260Z,10.70
2018-04-08T01:11:51.682Z,10.60
2018-04-08T01:14:19.893Z,10.60
2018-04-08T01:16:47.338Z,10.60
2018-04-08T01:19:14.768Z,10.60
2018-04-08T01:21:42.973Z,10.50
2018-04-08T01:24:10.418Z,10.50
2018-04-08T01:26:37.851Z,10.50
2018-04-08T01:29:06.063Z,10.50
2018-04-08T01:31:33.500Z,10.50
2018-04-08T01:34:00.934Z,10.50
2018-04-08T01:36:29.254Z,10.40
2018-04-08T01:38:56.673Z,10.40
2018-04-08T01:41:24.890Z,10.40
2018-04-08T01:43:52.345Z,10.30
2018-04-08T01:46:19.771Z,10.40
2018-04-08T01:48:47.210Z,10.40
2018-04-08T01:51:15.428Z,10.30
2018-04-08T01:53:42.884Z,10.30
2018-04-08T01:56:10.614Z,10.30
2018-04-08T01:58:38.818Z,10.20
2018-04-08T02:01:06.263Z,10.20
2018-04-08T02:03:33.716Z,10.20
2018-04-08T02:06:01.918Z,10.20
2018-04-08T02:08:29.349Z,10.10
2018-04-08T02:10:56.806Z,10.10
2018-04-08T02:13:24.229Z,10.10
2018-04-08T02:15:51.677Z,10.10
2018-04-08T02:18:19.310Z,10.10
2018-04-08T02:20:46.837Z,10.00
2018-04-08T02:23:14.273Z,10.00
2018-04-08T02:25:42.489Z,10.00
2018-04-08T02:28:09.913Z,9.90
2018-04-08T02:30:37.359Z,9.90
2018-04-08T02:33:05.552Z,9.90
2018-04-08T02:35:32.990Z,9.90
2018-04-08T02:38:01.198Z,9.90
2018-04-08T02:40:28.641Z,9.80
2018-04-08T02:42:56.083Z,9.90
2018-04-08T02:45:24.393Z,9.80
2018-04-08T02:47:51.817Z,9.80
2018-04-08T02:50:20.018Z,9.70
2018-04-08T02:52:47.449Z,9.70
2018-04-08T02:55:15.662Z,9.70
2018-04-08T02:57:43.097Z,9.60
2018-04-08T03:00:10.517Z,9.70
2018-04-08T03:02:37.950Z,9.60
2018-04-08T03:05:05.383Z,9.60
2018-04-08T03:07:32.828Z,9.50
2018-04-08T03:10:00.250Z,9.50
2018-04-08T03:12:28.452Z,9.50
2018-04-08T03:14:55.891Z,9.40
2018-04-08T03:17:24.107Z,9.40
2018-04-08T03:19:51.546Z,9.30
2018-04-08T03:22:18.974Z,9.40
2018-04-08T03:24:47.511Z,9.20
2018-04-08T03:27:14.955Z,9.20
2018-04-08T03:29:42.367Z,9.30
2018-04-08T03:32:10.579Z,9.30
2018-04-08T03:34:38.024Z,9.20
2018-04-08T03:37:05.448Z,9.20
2018-04-08T03:39:33.986Z,9.20
2018-04-08T03:42:01.414Z,9.10
2018-04-08T03:44:28.842Z,9.20
2018-04-08T03:46:57.053Z,9.20
2018-04-08T03:49:24.503Z,9.10
2018-04-08T03:51:51.931Z,9.20
2018-04-08T03:54:20.131Z,9.10
2018-04-08T03:56:47.570Z,9.10
2018-04-08T03:59:15.762Z,9.10
2018-04-08T04:01:43.203Z,9.00
2018-04-08T04:04:11.397Z,9.00
2018-04-08T04:06:38.826Z,9.00
2018-04-08T04:09:07.033Z,9.00
2018-04-08T04:11:34.484Z,8.90
2018-04-08T04:14:01.922Z,8.90
2018-04-08T04:16:29.369Z,8.90
2018-04-08T04:19:09.474Z,8.90
2018-04-08T04:21:48.900Z,8.80
2018-04-08T04:27:23.747Z,8.80
2018-04-08T04:29:51.527Z,8.80
2018-04-08T04:32:18.952Z,8.80
2018-04-08T04:34:46.384Z,8.70
2018-04-08T04:37:14.587Z,8.70
2018-04-08T04:39:42.030Z,8.60
2018-04-08T04:42:09.462Z,8.70
2018-04-08T04:44:36.895Z,8.60
2018-04-08T04:47:04.340Z,8.60
2018-04-08T04:49:31.782Z,8.60
2018-04-08T04:51:59.216Z,8.50
2018-04-08T04:54:26.656Z,8.60
2018-04-08T04:56:54.080Z,8.60
2018-04-08T04:59:21.521Z,8.50
2018-04-08T05:01:48.959Z,8.40
2018-04-08T05:04:16.387Z,8.30
2018-04-08T05:06:43.825Z,8.40
2018-04-08T05:09:12.040Z,8.50
2018-04-08T05:11:39.463Z,8.40
2018-04-08T05:14:07.687Z,8.60
2018-04-08T05:16:35.144Z,8.60
2018-04-08T05:19:02.563Z,8.60
2018-04-08T05:21:30.765Z,8.70
2018-04-08T05:23:58.188Z,8.60
2018-04-08T05:26:26.397Z,8.60
2018-04-08T05:28:53.849Z,8.60
2018-04-08T05:31:21.303Z,8.70
2018-04-08T05:33:48.748Z,8.80
2018-04-08T05:36:16.193Z,8.80
2018-04-08T05:38:44.382Z,9.00
2018-04-08T05:41:12.138Z,8.90
2018-04-08T05:43:39.566Z,9.00
2018-04-08T05:46:07.008Z,9.00
2018-04-08T05:48:34.454Z,9.00
2018-04-08T05:51:01.907Z,9.00
2018-04-08T05:53:29.336Z,9.10
2018-04-08T05:55:56.770Z,9.10
2018-04-08T05:58:24.966Z,9.10
2018-04-08T06:00:52.420Z,9.00
2018-04-08T06:03:19.931Z,9.20
2018-04-08T06:05:47.542Z,9.20
2018-04-08T06:08:15.078Z,9.20
2018-04-08T06:10:43.273Z,9.20
2018-04-08T06:13:10.726Z,9.20
2018-04-08T06:15:38.187Z,9.10
2018-04-08T06:18:05.642Z,9.20
2018-04-08T06:20:33.080Z,9.20
2018-04-08T06:23:00.529Z,9.30
2018-04-08T06:25:28.723Z,9.40
2018-04-08T06:27:56.155Z,9.40
2018-04-08T06:30:24.366Z,9.50
2018-04-08T06:32:51.802Z,9.50
2018-04-08T06:35:19.250Z,9.70
2018-04-08T06:37:47.154Z,9.80
2018-04-08T06:40:14.598Z,10.00
2018-04-08T06:42:42.032Z,10.10
2018-04-08T06:45:09.469Z,10.20
2018-04-08T06:47:36.915Z,10.30
2018-04-08T06:50:04.355Z,10.40
2018-04-08T06:52:31.791Z,10.50
2018-04-08T06:54:59.238Z,10.60
2018-04-08T06:57:26.690Z,10.60
2018-04-08T06:59:54.123Z,10.70
2018-04-08T07:02:22.349Z,10.90
2018-04-08T07:04:49.793Z,10.80
2018-04-08T07:07:17.238Z,10.90
2018-04-08T07:09:44.674Z,11.10
2018-04-08T07:12:12.113Z,11.30
2018-04-08T07:14:40.330Z,11.60
2018-04-08T07:17:07.777Z,11.50
2018-04-08T07:19:35.216Z,11.80
2018-04-08T07:22:02.652Z,12.10
2018-04-08T07:24:31.207Z,12.50
2018-04-08T07:26:58.765Z,12.40
2018-04-08T07:29:26.236Z,12.80
2018-04-08T07:31:53.678Z,13.00
2018-04-08T07:34:21.126Z,13.30
2018-04-08T07:36:48.573Z,13.60
2018-04-08T07:39:16.019Z,13.80
2018-04-08T07:41:43.451Z,14.00
2018-04-08T07:44:10.946Z,14.20
2018-04-08T07:46:38.322Z,14.60
2018-04-08T07:49:06.745Z,14.90
2018-04-08T07:51:34.224Z,15.00
2018-04-08T07:54:01.669Z,15.10
2018-04-08T07:56:29.102Z,15.00
2018-04-08T07:58:57.326Z,15.40
2018-04-08T08:01:24.770Z,15.30
2018-04-08T08:03:52.226Z,15.70
2018-04-08T08:06:19.907Z,16.00
2018-04-08T08:08:47.355Z,16.30
2018-04-08T08:11:14.847Z,16.60
2018-04-08T08:13:42.248Z,16.80
2018-04-08T08:16:09.682Z,17.10
2018-04-08T08:18:37.961Z,17.50
2018-04-08T08:21:06.189Z,17.60
2018-04-08T08:23:33.621Z,17.60
2018-04-08T08:26:01.073Z,17.70
2018-04-08T08:28:28.528Z,18.00
2018-04-08T08:30:55.969Z,18.40
2018-04-08T08:33:23.415Z,18.60
2018-04-08T08:35:51.637Z,18.80
2018-04-08T08:38:19.120Z,18.70
2018-04-08T08:40:46.556Z,19.00
2018-04-08T08:43:14.003Z,19.00
2018-04-08T08:45:41.442Z,19.30
2018-04-08T08:48:08.885Z,19.30
2018-04-08T08:50:36.341Z,19.50
2018-04-08T08:53:03.882Z,19.60
2018-04-08T08:55:31.317Z,19.80
2018-04-08T08:57:58.767Z,20.00
2018-04-08T09:00:26.202Z,20.30
2018-04-08T09:02:53.645Z,20.80
2018-04-08T09:05:21.086Z,20.90
2018-04-08T09:07:48.524Z,21.10
2018-04-08T09:10:16.742Z,21.40
2018-04-08T09:12:44.201Z,21.30
2018-04-08T09:15:11.938Z,21.90
2018-04-08T09:17:39.398Z,22.10
2018-04-08T09:20:10.258Z,22.50
2018-04-08T09:22:43.522Z,22.90
2018-04-08T09:25:12.370Z,23.10
2018-04-08T09:27:39.820Z,23.30
2018-04-08T09:30:07.253Z,23.30
2018-04-08T09:32:34.706Z,23.40
2018-04-08T09:35:02.168Z,23.50
2018-04-08T09:37:29.595Z,23.60
2018-04-08T09:39:57.046Z,23.80
2018-04-08T09:42:25.246Z,23.60
2018-04-08T09:44:52.701Z,23.60
2018-04-08T09:47:20.132Z,23.80
2018-04-08T09:49:47.568Z,24.00
2018-04-08T09:52:15.803Z,24.60
2018-04-08T09:54:43.233Z,24.60
2018-04-08T09:57:10.678Z,24.70
2018-04-08T09:59:38.117Z,24.70
2018-04-08T10:02:08.307Z,25.70
2018-04-08T10:04:35.773Z,25.60
2018-04-08T10:07:03.295Z,25.90
2018-04-08T10:09:30.737Z,25.50
2018-04-08T10:11:58.174Z,25.40
2018-04-08T10:14:26.386Z,26.00
2018-04-08T10:16:53.834Z,25.90
2018-04-08T10:19:21.289Z,25.10
2018-04-08T10:21:48.721Z,24.40
2018-04-08T10:24:16.955Z,25.00
2018-04-08T10:26:44.405Z,24.90
2018-04-08T10:29:11.891Z,25.30
2018-04-08T10:31:39.292Z,25.60
2018-04-08T10:34:06.750Z,26.10
2018-04-08T10:36:34.191Z,26.60
2018-04-08T10:39:01.636Z,26.80
2018-04-08T10:41:29.852Z,27.40
2018-04-08T10:43:57.293Z,27.30
2018-04-08T10:46:24.738Z,27.60
2018-04-08T10:48:52.175Z,28.00
2018-04-08T10:51:20.688Z,27.90
2018-04-08T10:53:48.132Z,27.80
2018-04-08T10:56:15.562Z,28.20
2018-04-08T10:58:43.787Z,28.20
2018-04-08T11:01:11.222Z,28.20
2018-04-08T11:03:38.670Z,28.30
2018-04-08T11:06:06.116Z,28.30
2018-04-08T11:08:34.648Z,28.80
2018-04-08T11:11:02.100Z,28.70
2018-04-08T11:13:29.526Z,28.70
2018-04-08T11:15:56.974Z,28.50
2018-04-08T11:18:24.430Z,28.50
2018-04-08T11:20:51.888Z,28.70
2018-04-08T11:23:19.319Z,28.30
2018-04-08T11:25:47.545Z,28.50
2018-04-08T11:28:15.119Z,28.50
2018-04-08T11:30:42.577Z,28.30
2018-04-08T11:33:10.097Z,28.10
2018-04-08T11:35:37.694Z,28.10
2018-04-08T11:38:05.135Z,28.20
2018-04-08T11:40:32.587Z,28.10
2018-04-08T11:43:00.043Z,28.10
2018-04-08T11:45:27.510Z,27.80
2018-04-08T11:47:54.944Z,27.30
2018-04-08T11:50:22.408Z,27.10
2018-04-08T11:52:49.858Z,26.30
2018-04-08T11:55:17.295Z,25.50
2018-04-08T11:57:45.498Z,24.20
2018-04-08T12:00:13.878Z,24.10
2018-04-08T12:02:41.319Z,23.90
2018-04-08T12:05:08.761Z,23.80
2018-04-08T12:07:36.979Z,23.20
2018-04-08T12:10:04.705Z,23.10
2018-04-08T12:12:32.142Z,22.70
2018-04-08T12:15:00.373Z,22.70
2018-04-08T12:17:27.827Z,22.60
2018-04-08T12:19:55.268Z,22.60
2018-04-08T12:22:22.726Z,22.70
2018-04-08T12:24:50.198Z,22.90
2018-04-08T12:27:17.650Z,23.20
2018-04-08T12:29:45.095Z,23.50
2018-04-08T12:32:12.533Z,23.60
2018-04-08T12:34:40.957Z,23.30
2018-04-08T12:37:08.410Z,23.20
2018-04-08T12:39:35.863Z,23.10
2018-04-08T12:42:03.306Z,23.20
2018-04-08T12:44:30.743Z,23.40
2018-04-08T12:46:58.191Z,23.50
2018-04-08T12:49:25.627Z,23.40
2018-04-08T12:51:53.139Z,23.50
2018-04-08T12:54:20.557Z,23.60
2018-04-08T12:56:48.774Z,23.40
2018-04-08T12:59:16.226Z,23.40
2018-04-08T13:01:43.662Z,23.50
2018-04-08T13:04:11.111Z,23.50
2018-04-08T13:06:38.570Z,23.40
2018-04-08T13:09:06.771Z,23.40
2018-04-08T13:11:34.222Z,23.30
2018-04-08T13:14:01.674Z,23.40
2018-04-08T13:16:29.102Z,23.40
2018-04-08T13:18:57.306Z,23.30
2018-04-08T13:21:24.776Z,23.30
2018-04-08T13:23:52.223Z,23.30
2018-04-08T13:26:19.672Z,23.40
2018-04-08T13:28:47.098Z,23.40
2018-04-08T13:31:15.329Z,23.60
2018-04-08T13:33:42.759Z,23.50
2018-04-08T13:36:10.202Z,23.50
2018-04-08T13:38:38.615Z,23.60
2018-04-08T13:41:06.042Z,23.50
2018-04-08T13:43:33.474Z,23.50
2018-04-08T13:46:00.916Z,23.40
2018-04-08T13:48:28.377Z,23.40
2018-04-08T13:50:55.817Z,23.50
2018-04-08T13:53:23.469Z,23.60
2018-04-08T13:55:50.923Z,23.70
2018-04-08T13:58:18.358Z,23.60
2018-04-08T14:00:46.144Z,23.40
2018-04-08T14:03:13.576Z,23.30
2018-04-08T14:05:41.021Z,23.20
2018-04-08T14:08:08.813Z,23.20
2018-04-08T14:10:36.255Z,23.30
2018-04-08T14:13:03.694Z,23.20
2018-04-08T14:15:31.152Z,23.30
2018-04-08T14:17:58.582Z,23.20
2018-04-08T14:20:26.803Z,23.00
2018-04-08T14:22:54.237Z,23.00
2018-04-08T14:25:22.042Z,23.00
2018-04-08T14:27:49.489Z,22.80
2018-04-08T14:30:16.966Z,22.80
2018-04-08T14:32:44.418Z,22.70
2018-04-08T14:35:11.870Z,22.80
2018-04-08T14:37:39.318Z,22.60
2018-04-08T14:40:06.764Z,22.60
2018-04-08T14:42:34.225Z,22.40
2018-04-08T14:45:01.673Z,22.40
2018-04-08T14:47:29.136Z,22.40
2018-04-08T14:49:56.575Z,22.40
2018-04-08T14:52:24.011Z,22.40
2018-04-08T14:54:52.550Z,22.30
2018-04-08T14:57:20.008Z,22.30
2018-04-08T14:59:47.442Z,22.20
2018-04-08T15:02:14.938Z,22.00
2018-04-08T15:04:42.338Z,21.90
2018-04-08T15:07:09.783Z,21.90
2018-04-08T15:09:37.229Z,21.70
2018-04-08T15:12:05.666Z,21.50
2018-04-08T15:14:33.117Z,21.50
2018-04-08T15:17:00.561Z,21.40
2018-04-08T15:19:28.008Z,21.30
2018-04-08T15:21:55.474Z,21.20
2018-04-08T15:24:22.914Z,21.10
2018-04-08T15:26:50.342Z,21.00
2018-04-08T15:29:18.563Z,20.80
2018-04-08T15:31:46.015Z,20.80
2018-04-08T15:34:13.457Z,20.70
2018-04-08T15:36:40.897Z,20.70
2018-04-08T15:39:09.110Z,20.60
2018-04-08T15:41:36.558Z,20.60
2018-04-08T15:44:04.004Z,20.60
2018-04-08T15:46:31.438Z,20.50
2018-04-08T15:48:58.891Z,20.40
2018-04-08T15:51:27.154Z,20.30
2018-04-08T15:53:54.542Z,20.30
2018-04-08T15:56:21.988Z,20.30
2018-04-08T15:58:50.210Z,20.20
2018-04-08T16:01:17.645Z,20.20
2018-04-08T16:03:45.121Z,20.20
2018-04-08T16:06:12.566Z,20.10
2018-04-08T16:08:40.017Z,20.10
2018-04-08T16:11:07.459Z,20.00
2018-04-08T16:13:34.945Z,20.00
2018-04-08T16:16:02.379Z,19.90
2018-04-08T16:18:29.822Z,19.90
2018-04-08T16:20:57.266Z,19.80
2018-04-08T16:23:25.474Z,19.80
2018-04-08T16:25:52.949Z,19.70
2018-04-08T16:28:20.394Z,19.70
2018-04-08T16:30:47.836Z,19.70
2018-04-08T16:33:15.283Z,19.70
2018-04-08T16:35:42.730Z,19.70
2018-04-08T16:38:10.923Z,19.60
2018-04-08T16:40:38.391Z,19.50
2018-04-08T16:43:05.823Z,19.60
2018-04-08T16:45:33.261Z,19.50
2018-04-08T16:48:01.496Z,19.40
2018-04-08T16:50:28.931Z,19.30
2018-04-08T16:52:56.442Z,19.30
2018-04-08T16:55:23.904Z,19.30
2018-04-08T16:57:51.358Z,19.30
2018-04-08T17:00:19.578Z,19.30
2018-04-08T17:02:47.014Z,19.20
2018-04-08T17:05:14.477Z,19.30
2018-04-08T17:07:42.665Z,19.30
2018-04-08T17:10:10.102Z,19.20
2018-04-08T17:12:37.559Z,19.20
2018-04-08T17:15:05.006Z,19.20
2018-04-08T17:17:32.488Z,19.10
2018-04-08T17:19:59.924Z,19.00
2018-04-08T17:22:28.149Z,19.00
2018-04-08T17:24:55.634Z,18.90
2018-04-08T17:27:23.847Z,18.90
2018-04-08T17:29:51.289Z,18.90
2018-04-08T17:32:18.880Z,18.90
2018-04-08T17:34:47.026Z,18.80
2018-04-08T17:37:14.483Z,18.70
2018-04-08T17:39:41.979Z,18.80
2018-04-08T17:42:09.442Z,18.70
2018-04-08T17:44:37.530Z,18.70
2018-04-08T17:47:05.774Z,18.60
2018-04-08T17:49:33.253Z,18.60
2018-04-08T17:52:00.674Z,18.60
2018-04-08T17:54:28.130Z,18.50
2018-04-08T17:56:55.562Z,18.50
2018-04-08T17:59:23.025Z,18.40
2018-04-08T18:01:51.223Z,18.40
2018-04-08T18:04:18.685Z,18.30
2018-04-08T18:06:46.117Z,18.30
2018-04-08T18:09:13.574Z,18.30
2018-04-08T18:11:41.043Z,18.20
2018-04-08T18:14:08.478Z,18.20
2018-04-08T18:16:35.920Z,18.20
2018-04-08T18:19:04.126Z,18.00
2018-04-08T18:21:31.587Z,18.00
2018-04-08T18:23:59.057Z,18.00
2018-04-08T18:26:26.498Z,18.00
2018-04-08T18:28:54.875Z,17.90
2018-04-08T18:31:22.358Z,17.90
2018-04-08T18:33:49.814Z,17.90
2018-04-08T18:36:17.285Z,17.80
2018-04-08T18:38:46.042Z,17.80
2018-04-08T18:41:13.496Z,17.80
2018-04-08T18:43:40.940Z,17.80
2018-04-08T18:46:08.389Z,17.80
2018-04-08T18:48:36.006Z,17.80
2018-04-08T18:51:04.222Z,17.70
2018-04-08T18:53:32.422Z,17.70
2018-04-08T18:55:59.887Z,17.60
2018-04-08T18:58:27.338Z,17.70
2018-04-08T19:00:54.785Z,17.60
2018-04-08T19:03:22.268Z,17.60
2018-04-08T19:05:49.721Z,17.50
2018-04-08T19:08:17.254Z,17.50
2018-04-08T19:10:44.748Z,17.50
2018-04-08T19:13:12.178Z,17.40
2018-04-08T19:15:39.612Z,17.40
2018-04-08T19:18:07.090Z,17.40
2018-04-08T19:20:34.554Z,17.30
2018-04-08T19:23:02.120Z,17.20
2018-04-08T19:25:29.556Z,17.20
2018-04-08T19:27:56.985Z,17.10
2018-04-08T19:30:25.222Z,17.00
2018-04-08T19:32:52.653Z,17.00
2018-04-08T19:35:20.102Z,17.00
2018-04-08T19:37:47.542Z,16.90
2018-04-08T19:40:15.003Z,16.90
2018-04-08T19:42:42.458Z,16.80
2018-04-08T19:45:09.894Z,16.80
2018-04-08T19:47:39.094Z,16.70
2018-04-08T19:50:08.307Z,16.70
2018-04-08T19:52:35.749Z,16.60
2018-04-08T19:55:03.965Z,16.60
2018-04-08T19:57:31.420Z,16.60
2018-04-08T19:59:58.868Z,16.50
2018-04-08T20:02:26.577Z,16.50
2018-04-08T20:04:54.776Z,16.40
2018-04-08T20:07:23.971Z,16.40
2018-04-08T20:09:52.194Z,16.40
2018-04-08T20:12:19.648Z,16.30
2018-04-08T20:14:47.082Z,16.40
2018-04-08T20:17:14.693Z,16.30
2018-04-08T20:19:42.153Z,16.30
2018-04-08T20:22:10.339Z,16.30
2018-04-08T20:24:37.804Z,16.20
2018-04-08T20:27:06.088Z,16.10
2018-04-08T20:29:34.302Z,16.10
2018-04-08T20:32:01.749Z,16.00
2018-04-08T20:34:29.202Z,16.10
2018-04-08T20:36:56.642Z,16.00
2018-04-08T20:39:32.410Z,16.00
2018-04-08T20:41:59.832Z,16.00
2018-04-08T20:44:28.059Z,15.90
2018-04-08T20:46:55.506Z,15.90
2018-04-08T20:49:22.962Z,15.90
2018-04-08T20:51:50.675Z,15.80
2018-04-08T20:54:18.104Z,15.80
2018-04-08T20:56:45.536Z,15.80
2018-04-08T20:59:12.990Z,15.80
2018-04-08T21:01:40.445Z,15.70
2018-04-08T21:04:07.886Z,15.70
2018-04-08T21:06:35.631Z,15.70
2018-04-08T21:09:03.838Z,15.60
2018-04-08T21:11:31.282Z,15.60
2018-04-08T21:13:58.776Z,15.60
2018-04-08T21:16:26.232Z,15.50
2018-04-08T21:18:53.662Z,15.50
2018-04-08T21:21:21.122Z,15.50
2018-04-08T21:23:48.563Z,15.40
2018-04-08T21:26:16.006Z,15.50
2018-04-08T21:28:44.222Z,15.40
2018-04-08T21:31:11.676Z,15.30
2018-04-08T21:33:39.130Z,15.40
2018-04-08T21:36:06.575Z,15.30
2018-04-08T21:38:34.066Z,15.30
2018-04-08T21:41:01.523Z,15.30
2018-04-08T21:43:28.974Z,15.20
2018-04-08T21:45:56.433Z,15.20
2018-04-08T21:48:23.866Z,15.20
2018-04-08T21:50:51.324Z,15.10
2018-04-08T21:53:18.770Z,15.00
2018-04-08T21:55:46.207Z,15.00
2018-04-08T21:58:13.671Z,15.00
2018-04-08T22:00:41.868Z,14.90
2018-04-08T22:03:09.303Z,14.90
2018-04-08T22:05:36.760Z,14.90
2018-04-08T22:08:04.195Z,14.90
2018-04-08T22:10:32.411Z,14.80
2018-04-08T22:12:59.898Z,14.70
2018-04-08T22:15:27.351Z,14.80
2018-04-08T22:17:54.801Z,14.70
2018-04-08T22:20:22.247Z,14.70
2018-04-08T22:22:49.693Z,14.70
2018-04-08T22:25:17.134Z,14.70
2018-04-08T22:27:44.578Z,14.70
2018-04-08T22:30:12.020Z,14.60
2018-04-08T22:32:40.233Z,14.60
2018-04-08T22:35:07.675Z,14.50
2018-04-08T22:37:35.113Z,14.50
2018-04-08T22:40:03.320Z,14.50
2018-04-08T22:42:30.771Z,14.40
2018-04-08T22:44:58.202Z,14.50
2018-04-08T22:47:26.405Z,14.40
2018-04-08T22:49:53.862Z,14.30
2018-04-08T22:52:21.298Z,14.40
2018-04-08T22:54:48.862Z,14.30
2018-04-08T22:57:16.303Z,14.30
2018-04-08T22:59:44.503Z,14.20
2018-04-08T23:02:11.954Z,14.20
2018-04-08T23:04:39.387Z,14.20
2018-04-08T23:07:07.599Z,14.10
2018-04-08T23:09:35.053Z,14.10
2018-04-08T23:12:02.490Z,14.10
2018-04-08T23:14:30.187Z,14.00
2018-04-08T23:16:57.623Z,14.10
2018-04-08T23:19:25.056Z,14.10
2018-04-08T23:21:53.268Z,13.90
2018-04-08T23:24:20.709Z,13.90
2018-04-08T23:26:48.301Z,13.90
2018-04-08T23:29:15.729Z,13.90
2018-04-08T23:31:43.166Z,13.90
2018-04-08T23:34:10.614Z,13.90
2018-04-08T23:36:38.818Z,13.90
2018-04-08T23:39:06.264Z,13.80
2018-04-08T23:41:33.701Z,13.80
2018-04-08T23:44:01.917Z,13.80
2018-04-08T23:46:29.349Z,13.70
2018-04-08T23:48:56.921Z,13.80
2018-04-08T23:51:24.340Z,13.80
2018-04-08T23:53:52.554Z,13.70
2018-04-08T23:56:20.032Z,13.60
2018-04-08T23:58:47.497Z,13.60
